Time;durP1;ratioP1;P1;durP2;ratioP2;P2;SDS_P1;SDS_P2;PMS_P1;PMS_P2;Temp;Humidity;BMP_temperature;BMP_pressure;BME280_temperature;BME280_humidity;BME280_pressure;Samples;Min_cycle;Max_cycle;Signal;HPM_P1;HPM_P2
2022/07/13 00:02:14;;;;;;;0.30;0.30;;;24.00;94.60;;;;;;4911101;29;20044;-77
2022/07/13 00:04:41;;;;;;;0.22;0.22;;;24.00;94.70;;;;;;4895207;29;20099;-79
2022/07/13 00:07:08;;;;;;;0.20;0.20;;;24.00;95.00;;;;;;4909632;29;20143;-79
2022/07/13 00:09:35;;;;;;;0.20;0.20;;;24.00;94.90;;;;;;4909896;29;20048;-78
2022/07/13 00:12:01;;;;;;;0.38;0.38;;;24.00;94.90;;;;;;4910360;29;20128;-78
2022/07/13 00:14:29;;;;;;;0.30;0.30;;;24.00;94.90;;;;;;4911555;29;20055;-78
2022/07/13 00:16:55;;;;;;;0.20;0.13;;;23.90;94.80;;;;;;4910174;29;20060;-77
2022/07/13 00:19:22;;;;;;;0.20;0.20;;;24.00;94.90;;;;;;4909239;29;20130;-79
2022/07/13 00:21:49;;;;;;;0.25;0.22;;;23.90;95.30;;;;;;4910907;29;20551;-77
2022/07/13 00:24:16;;;;;;;0.30;0.20;;;23.90;95.20;;;;;;4907287;29;20107;-78
2022/07/13 00:26:43;;;;;;;0.35;0.30;;;23.90;95.40;;;;;;4910557;29;20060;-78
2022/07/13 00:29:10;;;;;;;0.35;0.20;;;23.90;95.50;;;;;;4925253;29;20135;-78
2022/07/13 00:31:37;;;;;;;0.20;0.20;;;23.90;95.40;;;;;;4910580;29;20052;-80
2022/07/13 00:34:03;;;;;;;0.10;0.10;;;23.90;95.30;;;;;;4910722;29;20280;-77
2022/07/13 00:36:30;;;;;;;0.17;0.17;;;23.80;95.10;;;;;;4910881;29;20491;-76
2022/07/13 00:38:57;;;;;;;0.28;0.20;;;23.80;95.50;;;;;;4910775;29;20063;-76
2022/07/13 00:41:24;;;;;;;0.20;0.20;;;23.80;95.60;;;;;;4910791;29;20048;-77
2022/07/13 00:43:52;;;;;;;0.43;0.30;;;23.80;95.80;;;;;;4911167;29;20056;-80
2022/07/13 00:46:19;;;;;;;0.28;0.28;;;23.70;95.60;;;;;;4909471;29;20048;-76
2022/07/13 00:48:46;;;;;;;0.30;0.20;;;23.70;95.90;;;;;;4910512;29;20634;-76
2022/07/13 00:51:13;;;;;;;0.20;0.20;;;23.60;95.80;;;;;;4910485;29;20044;-77
2022/07/13 00:53:40;;;;;;;1.05;0.40;;;23.60;96.00;;;;;;4910219;29;20040;-77
2022/07/13 00:56:07;;;;;;;0.38;0.38;;;23.50;96.20;;;;;;4913630;29;20060;-80
2022/07/13 00:58:34;;;;;;;0.32;0.20;;;23.50;96.40;;;;;;4909998;29;20087;-81
2022/07/13 01:01:01;;;;;;;0.20;0.20;;;23.50;96.40;;;;;;4910371;29;20052;-78
2022/07/13 01:03:27;;;;;;;0.20;0.20;;;23.40;96.50;;;;;;4908102;29;20091;-80
2022/07/13 01:05:54;;;;;;;0.38;0.30;;;23.40;96.80;;;;;;4890810;29;20671;-79
2022/07/13 01:08:21;;;;;;;0.35;0.15;;;23.40;96.90;;;;;;4907018;29;20111;-77
2022/07/13 01:10:48;;;;;;;0.30;0.30;;;23.40;96.90;;;;;;4903412;29;20520;-79
2022/07/13 01:13:16;;;;;;;0.40;0.30;;;23.40;96.90;;;;;;4906959;29;20048;-78
2022/07/13 01:15:43;;;;;;;0.28;0.25;;;23.40;96.90;;;;;;4905721;29;20052;-78
2022/07/13 01:18:13;;;;;;;0.55;0.20;;;23.40;97.10;;;;;;4907390;29;20163;-77
2022/07/13 01:20:41;;;;;;;0.20;0.20;;;23.40;97.00;;;;;;4906685;29;20741;-78
2022/07/13 01:23:17;;;;;;;0.20;0.20;;;23.30;97.00;;;;;;4906775;29;20107;-80
2022/07/13 01:25:44;;;;;;;0.20;0.20;;;23.40;96.90;;;;;;4919656;29;20559;-78
2022/07/13 01:28:13;;;;;;;0.30;0.30;;;23.30;96.90;;;;;;4907545;29;20048;-80
2022/07/13 01:55:18;;;;;;;;;;;;;;;;;;;;;
2022/07/13 01:58:41;;;;;;;0.95;0.45;;;23.10;97.80;;;;;;4907703;29;20799;-92
2022/07/13 02:02:20;;;;;;;1.05;0.50;;;23.20;97.80;;;;;;4886578;29;20068;-89
2022/07/13 02:06:06;;;;;;;0.20;0.20;;;23.20;97.80;;;;;;4865335;29;20543;-91
2022/07/13 02:09:34;;;;;;;0.68;0.40;;;23.20;97.90;;;;;;4878999;29;20057;-89
2022/07/13 02:12:49;;;;;;;0.20;0.20;;;23.20;97.90;;;;;;4877160;29;20053;-91
2022/07/13 02:16:02;;;;;;;0.28;0.28;;;23.20;98.00;;;;;;4816050;29;20063;-91
2022/07/13 02:19:01;;;;;;;0.10;0.10;;;23.20;97.90;;;;;;4873503;29;20057;-89
2022/07/13 02:22:14;;;;;;;0.45;0.40;;;23.20;97.90;;;;;;4878789;29;20567;-89
2022/07/13 02:25:38;;;;;;;0.95;0.22;;;23.20;97.90;;;;;;4876070;29;20083;-89
2022/07/13 02:28:44;;;;;;;0.20;0.20;;;23.20;97.90;;;;;;4875622;29;20431;-88
2022/07/13 02:31:49;;;;;;;0.13;0.13;;;23.20;98.00;;;;;;4847158;29;20057;-88
2022/07/13 02:35:09;;;;;;;0.17;0.17;;;23.20;97.90;;;;;;4916275;28;20065;-89
2022/07/13 02:38:16;;;;;;;;;;;;;;;;;;;;;
2022/07/13 03:11:11;;;;;;;0.40;0.30;;;23.00;98.30;;;;;;5103602;23;20054;-90
2022/07/13 03:13:38;;;;;;;0.38;0.30;;;23.00;98.10;;;;;;4966420;28;20057;-90
2022/07/13 03:16:05;;;;;;;0.35;0.20;;;23.00;98.10;;;;;;4966224;28;20088;-89
2022/07/13 03:18:33;;;;;;;0.20;0.20;;;23.00;98.20;;;;;;4967435;28;20054;-89
2022/07/13 03:21:00;;;;;;;0.63;0.40;;;23.00;98.60;;;;;;4964328;28;20051;-92
2022/07/13 03:23:27;;;;;;;0.30;0.30;;;23.00;98.30;;;;;;4960129;28;20058;-92
2022/07/13 03:25:55;;;;;;;0.20;0.20;;;23.00;98.60;;;;;;4960366;28;20051;-91
2022/07/13 03:28:22;;;;;;;1.00;0.30;;;23.00;98.50;;;;;;4960968;28;20068;-91
2022/07/13 03:30:49;;;;;;;0.35;0.30;;;22.90;98.60;;;;;;4964732;28;20537;-91
2022/07/13 03:33:16;;;;;;;0.40;0.30;;;22.90;98.30;;;;;;4968155;28;20066;-89
2022/07/13 03:35:43;;;;;;;0.13;0.13;;;22.90;98.60;;;;;;4964144;28;20283;-90
2022/07/13 03:38:11;;;;;;;0.20;0.20;;;22.90;98.60;;;;;;4962497;28;20038;-93
2022/07/13 03:40:38;;;;;;;0.43;0.30;;;22.90;98.50;;;;;;4960976;28;20112;-92
2022/07/13 03:43:05;;;;;;;0.40;0.40;;;22.90;98.50;;;;;;4961605;28;20050;-92
2022/07/13 03:45:32;;;;;;;0.30;0.30;;;22.80;98.50;;;;;;4960575;28;20171;-95
2022/07/13 03:48:00;;;;;;;0.65;0.35;;;22.80;98.60;;;;;;4962762;28;20083;-96
2022/07/13 03:50:27;;;;;;;0.40;0.20;;;22.80;98.50;;;;;;4946553;28;20050;-95
2022/07/13 03:52:55;;;;;;;0.70;0.43;;;22.80;98.60;;;;;;4946904;28;20070;-93
2022/07/13 03:55:23;;;;;;;0.98;0.25;;;22.80;99.10;;;;;;4947391;28;20043;-95
2022/07/13 03:57:50;;;;;;;0.32;0.20;;;22.70;99.40;;;;;;4962246;28;20065;-94
2022/07/13 04:00:17;;;;;;;0.32;0.30;;;22.70;99.20;;;;;;4957620;28;20046;-93
2022/07/13 04:02:45;;;;;;;0.30;0.30;;;22.70;99.40;;;;;;4953180;28;20060;-94
2022/07/13 04:05:12;;;;;;;0.20;0.20;;;22.60;99.20;;;;;;4948555;28;20348;-96
2022/07/13 04:07:40;;;;;;;0.50;0.30;;;22.60;99.40;;;;;;4946943;28;20105;-91
2022/07/13 04:10:08;;;;;;;0.10;0.10;;;22.70;99.50;;;;;;4954959;28;20081;-96
2022/07/13 04:12:35;;;;;;;0.70;0.40;;;22.60;99.30;;;;;;4942926;28;20149;-91
2022/07/13 04:15:03;;;;;;;0.45;0.30;;;22.70;99.30;;;;;;4944800;28;20054;-89
2022/07/13 04:17:30;;;;;;;0.20;0.20;;;22.70;99.10;;;;;;4945646;28;20054;-93
2022/07/13 04:19:57;;;;;;;0.20;0.20;;;22.70;99.00;;;;;;4944063;28;20133;-92
2022/07/13 04:22:24;;;;;;;0.40;0.30;;;22.70;99.10;;;;;;4943069;28;20345;-90
2022/07/13 04:24:51;;;;;;;0.20;0.20;;;22.80;99.20;;;;;;4942928;28;20101;-92
2022/07/13 04:27:18;;;;;;;0.38;0.30;;;22.80;98.80;;;;;;4946509;28;20363;-89
2022/07/13 04:29:50;;;;;;;0.52;0.20;;;22.80;98.80;;;;;;4973218;28;20157;-89
2022/07/13 04:32:17;;;;;;;0.30;0.30;;;22.80;98.70;;;;;;4942173;28;20058;-90
2022/07/13 04:34:44;;;;;;;0.20;0.20;;;22.80;98.60;;;;;;4942974;28;20061;-92
2022/07/13 04:37:12;;;;;;;0.20;0.20;;;22.80;98.60;;;;;;4942529;28;20499;-90
2022/07/13 04:39:39;;;;;;;0.20;0.20;;;22.80;99.30;;;;;;4942670;28;20129;-91
2022/07/13 04:42:08;;;;;;;0.40;0.40;;;22.80;98.90;;;;;;4945465;28;20057;-92
2022/07/13 04:44:35;;;;;;;0.40;0.28;;;22.80;99.20;;;;;;4948576;28;20042;-92
2022/07/13 04:47:05;;;;;;;0.43;0.30;;;22.80;99.00;;;;;;4951030;28;20054;-94
2022/07/13 04:49:35;;;;;;;0.50;0.22;;;22.80;99.00;;;;;;4963327;28;20053;-92
2022/07/13 04:52:05;;;;;;;0.30;0.20;;;22.80;99.00;;;;;;4951540;28;20173;-91
2022/07/13 04:54:40;;;;;;;0.30;0.20;;;22.80;99.30;;;;;;4952998;28;20089;-92
2022/07/13 04:57:08;;;;;;;0.20;0.20;;;22.80;98.80;;;;;;4945981;28;20043;-91
2022/07/13 04:59:35;;;;;;;0.20;0.20;;;22.80;98.70;;;;;;4948648;28;20049;-92
2022/07/13 05:02:03;;;;;;;0.57;0.50;;;22.90;99.30;;;;;;4948476;28;20061;-92
2022/07/13 05:04:30;;;;;;;0.30;0.20;;;22.90;99.00;;;;;;4945541;28;20505;-90
2022/07/13 05:07:00;;;;;;;0.82;0.35;;;22.90;99.00;;;;;;4965299;28;20046;-90
2022/07/13 05:09:28;;;;;;;0.50;0.40;;;23.00;99.10;;;;;;4950386;28;20169;-96
2022/07/13 05:11:55;;;;;;;0.20;0.20;;;23.00;98.90;;;;;;4949203;28;20382;-93
2022/07/13 05:14:22;;;;;;;0.50;0.20;;;23.00;98.90;;;;;;4951740;28;20089;-92
2022/07/13 05:16:52;;;;;;;0.30;0.30;;;23.00;99.10;;;;;;4948554;28;20054;-91
2022/07/13 05:19:19;;;;;;;0.32;0.32;;;23.00;98.90;;;;;;4949118;28;20054;-93
2022/07/13 05:21:46;;;;;;;0.30;0.30;;;23.10;98.90;;;;;;4949142;28;20140;-92
2022/07/13 05:24:13;;;;;;;0.43;0.30;;;23.10;98.80;;;;;;4951168;28;20470;-92
2022/07/13 05:26:40;;;;;;;0.30;0.20;;;23.10;98.60;;;;;;4947248;28;20070;-90
2022/07/13 05:29:08;;;;;;;0.52;0.30;;;23.10;97.80;;;;;;4948161;28;20054;-92
2022/07/13 05:31:35;;;;;;;0.15;0.15;;;23.20;98.10;;;;;;4947787;28;20038;-92
2022/07/13 05:34:02;;;;;;;0.20;0.20;;;23.20;96.80;;;;;;4940875;28;20050;-94
2022/07/13 05:36:29;;;;;;;0.47;0.40;;;23.20;96.40;;;;;;4944780;28;20050;-93
2022/07/13 05:38:56;;;;;;;0.32;0.30;;;23.20;95.40;;;;;;4945644;28;21175;-91
2022/07/13 05:41:24;;;;;;;0.25;0.20;;;23.20;94.60;;;;;;4945000;28;20057;-93
2022/07/13 05:43:51;;;;;;;0.40;0.38;;;23.20;92.90;;;;;;4946863;28;20058;-92
2022/07/13 05:46:18;;;;;;;0.50;0.40;;;23.20;93.90;;;;;;4946342;28;20060;-89
2022/07/13 05:48:45;;;;;;;0.70;0.30;;;23.20;92.80;;;;;;4946549;28;20150;-92
2022/07/13 05:51:12;;;;;;;0.20;0.20;;;23.20;92.80;;;;;;4946997;28;20145;-92
2022/07/13 05:53:59;;;;;;;0.30;0.20;;;23.20;92.10;;;;;;4965402;28;20047;-91
2022/07/13 05:56:47;;;;;;;0.10;0.10;;;23.30;91.80;;;;;;4952409;28;20057;-92
2022/07/13 05:59:14;;;;;;;0.17;0.17;;;23.30;91.80;;;;;;4947337;28;20047;-91
2022/07/13 06:01:41;;;;;;;1.02;0.30;;;23.30;92.00;;;;;;4948640;28;20149;-91
2022/07/13 06:04:08;;;;;;;0.47;0.30;;;23.40;92.20;;;;;;4945471;28;20072;-91
2022/07/13 06:06:35;;;;;;;0.45;0.30;;;23.30;90.90;;;;;;4945426;28;20108;-92
2022/07/13 06:09:03;;;;;;;0.30;0.30;;;23.40;90.80;;;;;;4942686;28;20062;-90
2022/07/13 06:11:31;;;;;;;0.38;0.32;;;23.40;90.80;;;;;;4941569;28;20201;-90
2022/07/13 06:13:58;;;;;;;0.55;0.45;;;23.40;90.70;;;;;;4960470;28;20082;-91
2022/07/13 06:16:25;;;;;;;0.80;0.60;;;23.40;90.40;;;;;;4939740;28;20238;-90
2022/07/13 06:18:53;;;;;;;1.13;0.50;;;23.40;90.10;;;;;;4939319;28;20113;-91
2022/07/13 06:21:20;;;;;;;1.00;0.77;;;23.40;89.90;;;;;;4950596;28;20058;-90
2022/07/13 06:23:48;;;;;;;0.30;0.30;;;23.40;90.10;;;;;;4944480;28;20054;-90
2022/07/13 06:26:15;;;;;;;0.73;0.40;;;23.40;90.00;;;;;;4945563;28;20094;-88
2022/07/13 06:28:42;;;;;;;0.60;0.57;;;23.50;89.90;;;;;;4941404;28;20438;-89
2022/07/13 06:31:10;;;;;;;0.68;0.47;;;23.50;90.00;;;;;;4947402;28;20485;-88
2022/07/13 06:33:37;;;;;;;0.50;0.50;;;23.50;89.90;;;;;;4940759;28;20561;-90
2022/07/13 06:36:04;;;;;;;0.60;0.40;;;23.60;90.30;;;;;;4940137;28;20042;-90
2022/07/13 06:38:31;;;;;;;1.27;0.73;;;23.50;90.00;;;;;;4939454;28;20062;-89
2022/07/13 06:40:58;;;;;;;0.40;0.40;;;23.40;90.30;;;;;;4941831;28;20046;-89
2022/07/13 06:43:26;;;;;;;0.40;0.30;;;23.40;90.10;;;;;;4941933;28;20064;-90
2022/07/13 06:45:53;;;;;;;0.30;0.30;;;23.50;90.50;;;;;;4942261;28;20424;-91
2022/07/13 06:48:20;;;;;;;0.30;0.30;;;23.50;90.50;;;;;;4957952;28;20098;-91
2022/07/13 06:50:47;;;;;;;0.40;0.35;;;23.60;90.40;;;;;;4945212;28;20054;-89
2022/07/13 06:53:14;;;;;;;0.32;0.32;;;23.70;90.00;;;;;;4934999;28;20078;-88
2022/07/13 06:55:41;;;;;;;0.82;0.55;;;23.70;90.30;;;;;;4954770;28;20135;-89
2022/07/13 06:58:10;;;;;;;0.30;0.20;;;23.70;90.60;;;;;;4945600;28;20489;-90
2022/07/13 07:00:40;;;;;;;0.30;0.30;;;23.70;90.60;;;;;;4925222;28;20470;-91
2022/07/13 07:03:08;;;;;;;0.90;0.50;;;23.90;90.90;;;;;;4939244;28;20062;-92
2022/07/13 07:05:35;;;;;;;0.47;0.30;;;23.90;90.50;;;;;;4939878;28;20457;-90
2022/07/13 07:08:02;;;;;;;0.57;0.40;;;23.90;91.00;;;;;;4935836;28;20461;-90
2022/07/13 07:10:29;;;;;;;0.30;0.30;;;24.00;90.20;;;;;;4933626;28;20055;-94
2022/07/13 07:13:05;;;;;;;1.33;0.38;;;24.10;90.30;;;;;;4937101;28;20294;-90
2022/07/13 07:15:32;;;;;;;0.40;0.40;;;24.20;90.00;;;;;;4932177;28;20538;-91
2022/07/13 07:17:59;;;;;;;0.55;0.40;;;24.20;88.90;;;;;;4929655;29;20055;-89
2022/07/13 07:20:34;;;;;;;0.40;0.38;;;24.20;89.60;;;;;;4947257;28;20050;-90
2022/07/13 07:23:01;;;;;;;0.47;0.47;;;24.20;88.70;;;;;;4946152;28;20050;-90
2022/07/13 07:25:28;;;;;;;0.88;0.40;;;24.20;89.40;;;;;;4932354;28;20158;-89
2022/07/13 07:27:55;;;;;;;0.50;0.40;;;24.20;88.90;;;;;;4932334;28;20066;-90
2022/07/13 07:30:26;;;;;;;0.80;0.70;;;24.10;88.40;;;;;;4934433;28;20058;-89
2022/07/13 07:32:53;;;;;;;0.70;0.43;;;24.00;89.20;;;;;;4934740;28;20055;-90
2022/07/13 07:35:20;;;;;;;0.30;0.30;;;24.00;89.60;;;;;;4935567;28;20154;-89
2022/07/13 07:37:48;;;;;;;0.35;0.35;;;23.90;90.10;;;;;;4933131;28;20078;-91
2022/07/13 07:40:15;;;;;;;0.75;0.65;;;23.90;90.20;;;;;;4936247;28;20074;-89
2022/07/13 07:42:42;;;;;;;0.45;0.30;;;23.90;90.00;;;;;;4938306;28;20170;-89
2022/07/13 07:45:12;;;;;;;0.40;0.40;;;24.00;90.10;;;;;;4928365;29;20074;-90
2022/07/13 07:47:40;;;;;;;0.50;0.40;;;24.10;90.00;;;;;;4947782;28;20061;-91
2022/07/13 07:50:09;;;;;;;1.92;0.50;;;24.10;90.00;;;;;;4940482;28;20085;-91
2022/07/13 07:52:37;;;;;;;0.63;0.30;;;24.20;90.20;;;;;;4970273;28;20800;-90
2022/07/13 07:55:22;;;;;;;0.40;0.40;;;24.30;90.00;;;;;;4943639;28;20455;-91
2022/07/13 07:57:50;;;;;;;0.30;0.30;;;24.30;89.30;;;;;;4932778;29;20258;-91
2022/07/13 08:00:17;;;;;;;0.47;0.40;;;24.40;90.00;;;;;;4934275;28;20082;-89
2022/07/13 08:02:45;;;;;;;0.52;0.50;;;24.50;90.20;;;;;;4929742;28;20066;-89
2022/07/13 08:05:14;;;;;;;0.25;0.25;;;24.60;89.00;;;;;;4945015;28;20055;-89
2022/07/13 08:07:42;;;;;;;0.35;0.30;;;24.70;89.50;;;;;;4950137;28;20050;-90
2022/07/13 08:10:12;;;;;;;0.30;0.30;;;24.80;87.80;;;;;;4934487;28;20109;-88
2022/07/13 08:13:00;;;;;;;0.73;0.35;;;24.80;88.00;;;;;;4942910;28;20054;-90
2022/07/13 08:15:27;;;;;;;0.38;0.30;;;24.90;88.10;;;;;;4958057;28;20055;-93
2022/07/13 08:17:55;;;;;;;0.25;0.25;;;25.00;87.70;;;;;;4938773;28;20247;-92
2022/07/13 08:20:23;;;;;;;0.20;0.20;;;25.20;86.40;;;;;;4935383;29;20297;-92
2022/07/13 08:22:50;;;;;;;0.25;0.25;;;25.40;86.30;;;;;;4932422;28;20087;-91
2022/07/13 08:25:18;;;;;;;1.15;0.45;;;25.50;85.50;;;;;;4939066;28;20076;-90
2022/07/13 08:27:47;;;;;;;0.65;0.40;;;25.50;84.20;;;;;;4937752;28;20221;-91
2022/07/13 08:30:15;;;;;;;0.28;0.28;;;25.60;85.50;;;;;;4939426;28;20082;-92
2022/07/13 08:32:45;;;;;;;0.20;0.20;;;25.70;85.30;;;;;;4936572;28;20426;-90
2022/07/13 08:40:44;;;;;;;0.40;0.30;;;25.90;84.10;;;;;;4949554;28;20481;-91
2022/07/13 08:43:12;;;;;;;0.30;0.30;;;25.90;84.20;;;;;;4934586;28;20047;-90
2022/07/13 08:45:39;;;;;;;0.30;0.22;;;26.00;83.70;;;;;;4934722;28;20059;-90
2022/07/13 08:48:12;;;;;;;0.40;0.30;;;26.30;83.10;;;;;;4933758;28;20077;-89
2022/07/13 08:50:39;;;;;;;0.43;0.40;;;26.30;81.80;;;;;;4934716;28;20067;-91
2022/07/13 08:53:07;;;;;;;0.55;0.40;;;26.30;82.40;;;;;;4934968;28;20059;-88
2022/07/13 08:55:36;;;;;;;0.35;0.30;;;26.30;82.10;;;;;;4934654;28;20078;-90
2022/07/13 08:58:03;;;;;;;0.25;0.25;;;26.40;81.60;;;;;;4929918;28;20058;-93
2022/07/13 09:00:30;;;;;;;0.17;0.17;;;26.40;81.20;;;;;;4934023;28;20047;-89
2022/07/13 09:02:57;;;;;;;0.30;0.30;;;26.50;82.50;;;;;;4933201;28;20397;-91
2022/07/13 09:05:24;;;;;;;0.47;0.35;;;26.60;81.70;;;;;;4919321;29;20055;-92
2022/07/13 09:08:08;;;;;;;0.20;0.20;;;26.70;81.50;;;;;;4921540;29;20055;-92
2022/07/13 09:11:00;;;;;;;0.30;0.30;;;26.90;79.80;;;;;;4933418;28;20451;-88
2022/07/13 09:13:38;;;;;;;0.43;0.30;;;27.00;79.50;;;;;;4929384;28;20453;-88
2022/07/13 09:16:18;;;;;;;0.40;0.40;;;27.00;78.40;;;;;;4944344;28;20149;-90
2022/07/13 09:18:56;;;;;;;0.35;0.32;;;27.00;78.80;;;;;;4944228;28;20133;-88
2022/07/13 09:21:30;;;;;;;0.40;0.40;;;26.90;78.90;;;;;;4959638;28;20395;-89
2022/07/13 09:24:02;;;;;;;0.50;0.50;;;27.00;79.10;;;;;;4924979;28;20055;-88
2022/07/13 09:26:42;;;;;;;0.50;0.40;;;27.00;78.80;;;;;;4930573;29;20122;-88
2022/07/13 09:29:11;;;;;;;0.40;0.32;;;26.90;78.90;;;;;;4940527;28;20150;-91
2022/07/13 09:31:54;;;;;;;0.52;0.50;;;26.70;79.60;;;;;;4924460;29;20058;-89
2022/07/13 09:34:23;;;;;;;0.30;0.30;;;26.70;78.40;;;;;;4949904;28;20113;-89
2022/07/13 09:37:09;;;;;;;0.30;0.30;;;26.70;79.20;;;;;;4946662;28;20115;-88
2022/07/13 09:40:03;;;;;;;0.52;0.38;;;26.50;78.80;;;;;;4923382;29;20085;-87
2022/07/13 09:42:33;;;;;;;0.43;0.38;;;26.50;78.80;;;;;;4948050;28;20114;-88
2022/07/13 09:47:53;;;;;;;0.50;0.50;;;26.90;79.00;;;;;;4949367;28;20061;-86
2022/07/13 09:50:35;;;;;;;0.55;0.45;;;26.80;78.50;;;;;;4935470;28;20195;-90
2022/07/13 09:53:22;;;;;;;0.70;0.45;;;26.80;78.10;;;;;;4920269;28;20051;-88
2022/07/13 09:55:51;;;;;;;0.40;0.30;;;26.80;78.60;;;;;;4931693;28;20055;-87
2022/07/13 09:58:29;;;;;;;0.40;0.40;;;26.80;78.40;;;;;;4944222;28;20157;-90
2022/07/13 10:00:58;;;;;;;0.63;0.50;;;26.70;78.80;;;;;;4927964;29;20570;-89
2022/07/13 10:03:27;;;;;;;0.73;0.60;;;26.60;79.50;;;;;;4942874;28;20062;-89
2022/07/13 10:05:54;;;;;;;0.80;0.63;;;26.50;78.20;;;;;;4944507;28;20058;-86
2022/07/13 10:08:24;;;;;;;0.75;0.70;;;26.60;78.80;;;;;;4932230;28;20050;-90
2022/07/13 10:10:54;;;;;;;0.70;0.50;;;26.70;79.10;;;;;;4946515;28;20072;-88
2022/07/13 10:13:23;;;;;;;1.40;0.65;;;26.80;78.20;;;;;;4951880;28;20046;-90
2022/07/13 10:15:51;;;;;;;0.30;0.30;;;27.00;78.80;;;;;;4943953;28;20081;-88
2022/07/13 10:18:24;;;;;;;0.82;0.57;;;27.10;78.20;;;;;;4941559;28;20056;-90
2022/07/13 10:21:16;;;;;;;0.40;0.40;;;27.30;76.60;;;;;;4963196;28;20594;-88
2022/07/13 10:23:44;;;;;;;0.40;0.40;;;27.20;75.80;;;;;;4934365;28;20477;-89
2022/07/13 10:26:24;;;;;;;0.57;0.40;;;27.30;75.90;;;;;;4945081;28;20156;-91
2022/07/13 10:29:11;;;;;;;0.52;0.52;;;27.30;76.20;;;;;;4937753;28;20082;-88
2022/07/13 10:31:40;;;;;;;0.80;0.50;;;27.40;77.00;;;;;;4937203;28;20057;-90
2022/07/13 10:34:09;;;;;;;0.40;0.30;;;27.30;77.40;;;;;;4952196;28;20062;-89
2022/07/13 10:36:51;;;;;;;0.35;0.35;;;27.30;77.20;;;;;;4950258;28;20062;-88
2022/07/13 10:39:19;;;;;;;0.52;0.40;;;27.20;76.50;;;;;;4963724;28;20112;-89
2022/07/13 10:42:10;;;;;;;0.88;0.50;;;27.30;76.20;;;;;;4943406;28;20058;-90
2022/07/13 10:44:40;;;;;;;0.70;0.50;;;27.40;76.80;;;;;;4943570;28;20061;-88
2022/07/13 10:47:11;;;;;;;0.40;0.30;;;27.60;76.90;;;;;;4967165;28;20085;-89
2022/07/13 10:49:51;;;;;;;0.87;0.70;;;27.60;76.50;;;;;;4940453;28;20050;-88
2022/07/13 10:52:27;;;;;;;0.82;0.43;;;27.80;76.00;;;;;;4938374;28;20326;-88
2022/07/13 10:55:12;;;;;;;0.75;0.60;;;27.90;77.00;;;;;;4962184;28;20143;-89
2022/07/13 10:57:41;;;;;;;0.47;0.47;;;28.20;75.50;;;;;;4959581;28;20081;-90
2022/07/13 11:00:19;;;;;;;0.85;0.60;;;28.50;74.50;;;;;;4950717;28;20070;-88
2022/07/13 11:02:50;;;;;;;0.60;0.50;;;28.60;74.40;;;;;;4933653;28;20122;-89
2022/07/13 11:05:26;;;;;;;0.50;0.47;;;28.70;72.60;;;;;;4945315;28;20061;-89
2022/07/13 11:07:53;;;;;;;0.52;0.50;;;28.60;72.20;;;;;;4946412;28;20054;-87
2022/07/13 11:10:30;;;;;;;0.60;0.50;;;28.50;71.90;;;;;;4932144;28;20435;-90
2022/07/13 11:13:08;;;;;;;0.50;0.43;;;28.40;72.10;;;;;;4958968;28;20061;-88
2022/07/13 11:15:50;;;;;;;0.40;0.40;;;28.50;72.20;;;;;;4945012;28;20050;-89
2022/07/13 11:18:32;;;;;;;0.73;0.50;;;28.60;72.10;;;;;;4991775;28;20091;-88
2022/07/13 11:21:18;;;;;;;0.65;0.50;;;28.60;72.50;;;;;;4946472;28;20061;-90
2022/07/13 11:26:54;;;;;;;0.93;0.68;;;28.80;72.50;;;;;;4999132;28;20070;-90
2022/07/13 11:29:37;;;;;;;1.15;0.60;;;28.90;72.80;;;;;;4955356;28;20055;-89
2022/07/13 11:32:04;;;;;;;;;;;29.20;72.60;;;;;;4958722;28;20058;-89
2022/07/13 11:34:31;;;;;;;0.40;0.40;;;29.50;70.50;;;;;;4955289;28;20287;-92
2022/07/13 11:37:01;;;;;;;0.30;0.30;;;30.00;70.50;;;;;;4933492;28;20092;-90
2022/07/13 11:39:29;;;;;;;0.50;0.40;;;30.30;69.40;;;;;;4954980;28;20330;-91
2022/07/13 11:41:57;;;;;;;0.40;0.40;;;30.40;70.30;;;;;;4936742;28;20479;-92
2022/07/13 11:44:31;;;;;;;0.65;0.40;;;30.60;70.10;;;;;;4943283;28;20058;-91
2022/07/13 11:47:01;;;;;;;0.50;0.40;;;30.60;70.20;;;;;;4945507;28;20055;-92
2022/07/13 11:49:28;;;;;;;0.70;0.50;;;30.40;69.70;;;;;;4940036;28;20332;-91
2022/07/13 11:51:58;;;;;;;0.40;0.30;;;30.40;69.40;;;;;;4944203;28;20154;-92
2022/07/13 11:54:25;;;;;;;0.98;0.65;;;30.30;69.00;;;;;;4944340;28;20072;-91
2022/07/13 11:56:56;;;;;;;0.45;0.30;;;30.10;69.50;;;;;;4944798;28;20046;-92
2022/07/13 11:59:44;;;;;;;0.38;0.38;;;30.10;69.10;;;;;;4959386;28;20493;-91
2022/07/13 12:02:14;;;;;;;0.40;0.40;;;30.20;69.10;;;;;;4937365;28;20038;-91
2022/07/13 12:04:41;;;;;;;0.35;0.35;;;30.40;69.10;;;;;;4937517;28;20064;-90
2022/07/13 12:07:16;;;;;;;0.60;0.50;;;30.30;69.40;;;;;;4941151;28;20047;-89
2022/07/13 12:10:02;;;;;;;0.60;0.40;;;30.20;69.30;;;;;;4940272;28;20050;-92
2022/07/13 12:12:34;;;;;;;0.68;0.63;;;30.50;69.20;;;;;;4952033;28;20470;-91
2022/07/13 12:15:01;;;;;;;0.93;0.60;;;30.90;68.60;;;;;;4949889;28;20058;-91
2022/07/13 12:17:29;;;;;;;0.50;0.50;;;31.30;68.50;;;;;;4955218;28;20304;-91
2022/07/13 12:20:11;;;;;;;0.40;0.40;;;31.40;67.90;;;;;;4937349;28;20089;-89
2022/07/13 12:22:39;;;;;;;0.65;0.60;;;31.40;66.90;;;;;;4935056;28;20372;-89
2022/07/13 12:25:07;;;;;;;0.50;0.50;;;31.40;67.20;;;;;;4934591;28;20420;-89
2022/07/13 12:27:34;;;;;;;0.63;0.63;;;31.60;67.40;;;;;;4943877;28;20109;-88
2022/07/13 12:30:11;;;;;;;0.50;0.50;;;32.10;66.60;;;;;;4934206;28;20138;-90
2022/07/13 12:33:06;;;;;;;0.60;0.60;;;32.80;65.60;;;;;;4941071;28;20047;-88
2022/07/13 12:35:36;;;;;;;0.40;0.40;;;33.30;64.10;;;;;;4969742;28;20405;-88
2022/07/13 12:38:15;;;;;;;0.50;0.50;;;33.60;63.90;;;;;;4965308;28;20071;-89
2022/07/13 12:40:52;;;;;;;0.60;0.60;;;33.90;63.20;;;;;;4936851;28;20394;-89
2022/07/13 12:43:26;;;;;;;0.68;0.55;;;34.10;62.80;;;;;;4940683;28;20097;-88
2022/07/13 12:46:02;;;;;;;0.60;0.60;;;34.10;62.50;;;;;;4934534;28;20762;-89
2022/07/13 12:48:31;;;;;;;0.40;0.40;;;34.60;62.10;;;;;;4971697;28;20469;-89
2022/07/13 12:51:09;;;;;;;0.45;0.45;;;34.40;60.80;;;;;;4932018;28;20137;-89
2022/07/13 12:53:56;;;;;;;0.43;0.40;;;34.30;60.80;;;;;;4950462;28;20085;-88
2022/07/13 12:56:25;;;;;;;0.30;0.30;;;34.70;61.10;;;;;;4956814;28;20142;-91
2022/07/13 12:58:58;;;;;;;0.43;0.43;;;34.80;60.20;;;;;;4953837;28;20065;-90
2022/07/13 13:01:32;;;;;;;0.40;0.40;;;34.90;60.10;;;;;;4934343;28;20061;-91
2022/07/13 13:04:03;;;;;;;0.80;0.50;;;35.20;60.10;;;;;;4945404;28;20114;-90
2022/07/13 13:06:35;;;;;;;0.38;0.38;;;35.60;60.00;;;;;;4923679;28;20082;-90
2022/07/13 13:09:07;;;;;;;0.57;0.47;;;36.30;59.20;;;;;;4929499;28;20046;-91
2022/07/13 13:11:34;;;;;;;;;;;36.60;58.60;;;;;;4945583;28;20554;-89
2022/07/13 13:14:02;;;;;;;0.68;0.50;;;36.90;57.30;;;;;;4982507;28;20376;-91
2022/07/13 13:16:29;;;;;;;0.40;0.40;;;36.80;56.40;;;;;;4959819;28;20046;-91
2022/07/13 13:18:56;;;;;;;0.32;0.32;;;36.60;56.00;;;;;;4947004;28;20356;-93
2022/07/13 13:21:23;;;;;;;0.40;0.40;;;36.60;56.50;;;;;;4942963;28;20057;-90
2022/07/13 13:23:50;;;;;;;0.20;0.20;;;36.60;56.90;;;;;;4953401;28;20066;-91
2022/07/13 13:26:17;;;;;;;0.38;0.30;;;36.10;56.50;;;;;;4945789;28;20046;-89
2022/07/13 13:31:44;;;;;;;0.35;0.35;;;35.10;57.60;;;;;;4944860;28;20050;-90
2022/07/13 13:34:14;;;;;;;0.40;0.40;;;34.80;58.00;;;;;;4945145;28;20058;-91
2022/07/13 13:36:46;;;;;;;0.20;0.20;;;35.20;57.50;;;;;;4964999;28;20098;-90
2022/07/13 13:39:17;;;;;;;0.20;0.20;;;34.90;57.60;;;;;;4940025;28;20046;-90
2022/07/13 13:41:47;;;;;;;0.47;0.47;;;34.70;58.40;;;;;;4943240;28;20060;-89
2022/07/13 13:44:15;;;;;;;0.40;0.40;;;34.60;58.00;;;;;;4950489;28;20054;-90
2022/07/13 13:46:42;;;;;;;0.47;0.47;;;35.00;57.60;;;;;;4945448;28;20069;-90
2022/07/13 13:49:11;;;;;;;0.35;0.32;;;35.30;58.10;;;;;;4945308;28;20477;-90
2022/07/13 13:51:38;;;;;;;0.40;0.40;;;35.80;58.00;;;;;;4960352;28;20070;-90
2022/07/13 13:54:23;;;;;;;0.45;0.45;;;36.60;56.10;;;;;;4965322;28;20047;-90
2022/07/13 13:56:51;;;;;;;0.30;0.30;;;37.40;54.90;;;;;;4961169;28;20073;-91
2022/07/13 13:59:18;;;;;;;0.50;0.50;;;38.20;55.60;;;;;;4945883;28;20502;-90
2022/07/13 14:01:47;;;;;;;0.30;0.30;;;38.10;54.50;;;;;;4958386;28;20107;-89
2022/07/13 14:04:19;;;;;;;0.50;0.50;;;38.30;54.30;;;;;;4951896;28;20109;-90
2022/07/13 14:06:46;;;;;;;0.30;0.30;;;37.90;54.50;;;;;;4942735;28;20463;-90
2022/07/13 14:09:13;;;;;;;0.25;0.25;;;37.40;54.40;;;;;;4939928;28;20064;-90
2022/07/13 14:11:41;;;;;;;0.50;0.30;;;36.70;54.70;;;;;;4940359;28;20116;-91
2022/07/13 14:14:08;;;;;;;0.40;0.20;;;36.10;54.90;;;;;;4943582;28;20058;-91
2022/07/13 14:16:35;;;;;;;0.20;0.20;;;35.80;55.90;;;;;;4943531;28;20054;-91
2022/07/13 14:19:02;;;;;;;0.30;0.20;;;35.60;55.40;;;;;;4944516;28;20405;-90
2022/07/13 14:21:29;;;;;;;0.25;0.20;;;35.70;56.30;;;;;;4948217;28;20206;-90
2022/07/13 14:23:56;;;;;;;0.25;0.25;;;36.40;56.20;;;;;;4945424;28;20146;-91
2022/07/13 14:26:44;;;;;;;0.35;0.20;;;36.70;55.50;;;;;;4952684;28;20047;-90